La Joya, New Mexico
Current Conditions -  °F | °C
As of 5:55 PM on Wednesday 17 Dec 2014 (Local Time) from KE80 Reporting Station
Overcast Overcast  
Wind Chill: 32°   Ceiling: 12000
Heat Index: 38°   Visibility: 10mi
Dew Point: 37°   Wind: 8mph
Humidity: 94%   Direction: 220°SW
Pressure: 30.04"   Gusts: NA
Location:  34.35°N, 106.84°W
Report Text: KE80 180055Z AUTO 22007KT 10SM OVC120 04/03 A3004 RMK AO2 T00350026
Loading
Personal Weather Stations






























Interactive Weather Map New forecast layout! Learn more

10-Day Weather Forecast

Advertisements
Track Severe Weather on mobile